This is the latest recevied weather packets stored in our database for station/object IU1OLT-7. If no packets are shown the sender has not sent any weather packets the latest 10 day(s).
| Time | Temp. | Humidity | Pressure | Rain* | Wind** | Luminosity | Snow |
|---|---|---|---|---|---|---|---|
| 1777315867 | 15° C | 51% | 1020.5 hPa | - | - | - | - |
| 1777314967 | 15.56° C | 48% | 1020.5 hPa | - | - | - | - |
| 1777314067 | 13.89° C | 46% | 1020.5 hPa | - | - | - | - |
| 1777313199 | 16.67° C | 42% | 1020.4 hPa | - | - | - | - |
| 1777313167 | 16.67° C | 42% | 1020.4 hPa | - | - | - | - |
| 1777312267 | 18.89° C | 38% | 1020.3 hPa | - | - | - | - |
| 1777311367 | 16.67° C | 48% | 1020.3 hPa | - | - | - | - |
| 1777310467 | 17.22° C | 45% | 1020.2 hPa | - | - | - | - |
| 1777309567 | 17.22° C | 47% | 1020.2 hPa | - | - | - | - |
| 1777308667 | 19.44° C | 42% | 1020.1 hPa | - | - | - | - |
| 1777307767 | 17.22° C | 47% | 1020.3 hPa | - | - | - | - |
| 1777306867 | 18.33° C | 46% | 1020.4 hPa | - | - | - | - |
| 1777305967 | 21.11° C | 40% | 1020.3 hPa | - | - | - | - |
| 1777305067 | 21.11° C | 39% | 1020.4 hPa | - | - | - | - |
| 1777304167 | 23.33° C | 35% | 1020.4 hPa | - | - | - | - |
| 1777303267 | 23.33° C | 35% | 1020.6 hPa | - | - | - | - |
| 1777302367 | 23.33° C | 38% | 1020.5 hPa | - | - | - | - |
| 1777301467 | 20° C | 47% | 1020.7 hPa | - | - | - | - |
| 1777300567 | 21.11° C | 45% | 1020.7 hPa | - | - | - | - |
| 1777299667 | 23.89° C | 39% | 1020.8 hPa | - | - | - | - |
| 1777298767 | 26.67° C | 33% | 1020.7 hPa | - | - | - | - |
| 1777296967 | 26.67° C | 32% | 1020.8 hPa | - | - | - | - |
| 1777296067 | 22.78° C | 40% | 1021 hPa | - | - | - | - |
| 1777295167 | 24.44° C | 37% | 1021.3 hPa | - | - | - | - |
| 1777294267 | 27.22° C | 36% | 1021.3 hPa | - | - | - | - |
* Rain since midnight (hover to see other rain measurements)
** Current wind speed in m/s (hover to see current wind gust speed)